createdAt,value
2024-01-08T00:00:48.408Z,87763.00
2024-01-08T00:01:48.393Z,87763.00
2024-01-08T00:02:48.352Z,87760.00
2024-01-08T00:03:48.460Z,87760.00
2024-01-08T00:04:48.382Z,87758.00
2024-01-08T00:05:48.377Z,87760.00
2024-01-08T00:06:48.320Z,87761.00
2024-01-08T00:07:48.423Z,87760.00
2024-01-08T00:08:48.343Z,87762.00
2024-01-08T00:09:48.324Z,87760.00
2024-01-08T00:10:48.337Z,87761.00
2024-01-08T00:11:48.333Z,87758.00
2024-01-08T00:12:48.335Z,87762.00
2024-01-08T00:13:48.384Z,87764.00
2024-01-08T00:14:48.333Z,87763.00
2024-01-08T00:15:48.339Z,87762.00
2024-01-08T00:16:48.431Z,87762.00
2024-01-08T00:17:48.384Z,87764.00
2024-01-08T00:18:48.410Z,87763.00
2024-01-08T00:19:48.399Z,87764.00
2024-01-08T00:20:48.346Z,87764.00
2024-01-08T00:21:48.350Z,87761.00
2024-01-08T00:22:48.382Z,87758.00
2024-01-08T00:23:48.377Z,87761.00
2024-01-08T00:24:48.351Z,87759.00
2024-01-08T00:25:48.358Z,87762.00
2024-01-08T00:26:48.370Z,87761.00
2024-01-08T00:27:48.520Z,87765.00
2024-01-08T00:28:48.351Z,87760.00
2024-01-08T00:29:48.334Z,87760.00
2024-01-08T00:30:48.349Z,87761.00
2024-01-08T00:31:48.369Z,87762.00
2024-01-08T00:32:49.147Z,87763.00
2024-01-08T00:33:48.426Z,87760.00
2024-01-08T00:34:48.312Z,87764.00
2024-01-08T00:35:48.328Z,87763.00
2024-01-08T00:36:48.336Z,87761.00
2024-01-08T00:37:48.365Z,87762.00
2024-01-08T00:38:48.325Z,87762.00
2024-01-08T00:39:48.356Z,87763.00
2024-01-08T00:40:48.435Z,87766.00
2024-01-08T00:41:48.306Z,87764.00
2024-01-08T00:42:48.947Z,87765.00
2024-01-08T00:43:48.418Z,87763.00
2024-01-08T00:44:48.350Z,87767.00
2024-01-08T00:45:48.295Z,87769.00
2024-01-08T00:46:48.326Z,87769.00
2024-01-08T00:47:49.128Z,87771.00
2024-01-08T00:48:48.301Z,87771.00
2024-01-08T00:49:48.345Z,87772.00
2024-01-08T00:50:48.322Z,87772.00
2024-01-08T00:51:48.294Z,87771.00
2024-01-08T00:52:48.727Z,87770.00
2024-01-08T00:53:48.296Z,87774.00
2024-01-08T00:54:48.329Z,87779.00
2024-01-08T00:55:48.370Z,87774.00
2024-01-08T00:56:48.369Z,87777.00
2024-01-08T00:57:48.583Z,87778.00
2024-01-08T00:58:48.380Z,87779.00
2024-01-08T00:59:48.360Z,87779.00
2024-01-08T01:00:48.348Z,87778.00
2024-01-08T01:01:48.381Z,87779.00
2024-01-08T01:02:49.248Z,87780.00
2024-01-08T01:03:48.517Z,87780.00
2024-01-08T01:04:48.488Z,87782.00
2024-01-08T01:05:48.419Z,87779.00
2024-01-08T01:06:48.383Z,87779.00
2024-01-08T01:07:48.374Z,87779.00
2024-01-08T01:08:48.368Z,87776.00
2024-01-08T01:09:48.356Z,87779.00
2024-01-08T01:10:48.386Z,87783.00
2024-01-08T01:11:48.372Z,87782.00
2024-01-08T01:12:48.389Z,87781.00
2024-01-08T01:13:48.385Z,87781.00
2024-01-08T01:14:48.353Z,87782.00
2024-01-08T01:15:48.391Z,87784.00
2024-01-08T01:16:48.387Z,87783.00
2024-01-08T01:17:48.633Z,87783.00
2024-01-08T01:18:48.418Z,87783.00
2024-01-08T01:19:48.365Z,87783.00
2024-01-08T01:20:48.359Z,87782.00
2024-01-08T01:21:48.428Z,87783.00
2024-01-08T01:22:48.412Z,87783.00
2024-01-08T01:23:48.366Z,87782.00
2024-01-08T01:24:48.356Z,87783.00
2024-01-08T01:25:48.401Z,87783.00
2024-01-08T01:26:48.348Z,87782.00
2024-01-08T01:27:48.362Z,87786.00
2024-01-08T01:28:48.416Z,87784.00
2024-01-08T01:29:48.354Z,87785.00
2024-01-08T01:30:48.381Z,87787.00
2024-01-08T01:31:48.410Z,87787.00
2024-01-08T01:32:48.494Z,87787.00
2024-01-08T01:33:48.460Z,87786.00
2024-01-08T01:34:48.407Z,87784.00
2024-01-08T01:35:48.376Z,87787.00
2024-01-08T01:36:48.405Z,87788.00
2024-01-08T01:37:48.416Z,87787.00
2024-01-08T01:38:48.383Z,87786.00
2024-01-08T01:39:48.415Z,87788.00
2024-01-08T01:40:48.466Z,87787.00
2024-01-08T01:41:48.416Z,87787.00
2024-01-08T01:42:48.457Z,87789.00
2024-01-08T01:43:48.528Z,87790.00
2024-01-08T01:44:48.521Z,87790.00
2024-01-08T01:45:48.513Z,87790.00
2024-01-08T01:46:48.593Z,87789.00
2024-01-08T01:47:48.624Z,87792.00
2024-01-08T01:48:48.566Z,87793.00
2024-01-08T01:49:48.563Z,87793.00
2024-01-08T01:50:48.512Z,87795.00
2024-01-08T01:51:48.516Z,87793.00
2024-01-08T01:52:48.540Z,87793.00
2024-01-08T01:53:48.527Z,87792.00
2024-01-08T01:54:48.512Z,87791.00
2024-01-08T01:55:48.562Z,87792.00
2024-01-08T01:56:48.534Z,87790.00
2024-01-08T01:57:48.513Z,87789.00
2024-01-08T01:58:48.585Z,87790.00
2024-01-08T01:59:48.513Z,87788.00
2024-01-08T02:00:48.599Z,87789.00
2024-01-08T02:01:48.562Z,87791.00
2024-01-08T02:02:48.787Z,87789.00
2024-01-08T02:03:48.631Z,87790.00
2024-01-08T02:04:48.622Z,87794.00
2024-01-08T02:05:48.647Z,87794.00
2024-01-08T02:06:48.511Z,87792.00
2024-01-08T02:07:48.628Z,87791.00
2024-01-08T02:08:48.527Z,87790.00
2024-01-08T02:09:48.517Z,87791.00
2024-01-08T02:10:48.558Z,87791.00
2024-01-08T02:11:48.530Z,87792.00
2024-01-08T02:12:48.533Z,87793.00
2024-01-08T02:13:48.561Z,87793.00
2024-01-08T02:14:48.545Z,87791.00
2024-01-08T02:15:48.548Z,87793.00
2024-01-08T02:16:48.608Z,87793.00
2024-01-08T02:17:48.632Z,87792.00
2024-01-08T02:18:48.616Z,87793.00
2024-01-08T02:19:48.577Z,87792.00
2024-01-08T02:20:48.545Z,87792.00
2024-01-08T02:21:48.561Z,87792.00
2024-01-08T02:22:48.626Z,87793.00
2024-01-08T02:23:48.562Z,87793.00
2024-01-08T02:24:48.549Z,87797.00
2024-01-08T02:25:48.584Z,87796.00
2024-01-08T02:26:48.577Z,87797.00
2024-01-08T02:27:48.617Z,87797.00
2024-01-08T02:28:48.666Z,87801.00
2024-01-08T02:29:48.580Z,87798.00
2024-01-08T02:30:48.651Z,87796.00
2024-01-08T02:31:48.666Z,87798.00
2024-01-08T02:32:48.723Z,87796.00
2024-01-08T02:33:48.587Z,87796.00
2024-01-08T02:34:48.662Z,87797.00
2024-01-08T02:35:48.660Z,87795.00
2024-01-08T02:36:48.586Z,87795.00
2024-01-08T02:37:48.757Z,87798.00
2024-01-08T02:38:48.613Z,87798.00
2024-01-08T02:39:48.609Z,87798.00
2024-01-08T02:40:48.689Z,87799.00
2024-01-08T02:41:48.622Z,87802.00
2024-01-08T02:42:49.102Z,87801.00
2024-01-08T02:43:48.653Z,87799.00
2024-01-08T02:44:48.622Z,87800.00
2024-01-08T02:45:48.634Z,87801.00
2024-01-08T02:46:48.724Z,87801.00
2024-01-08T02:47:48.781Z,87799.00
2024-01-08T02:48:48.817Z,87803.00
2024-01-08T02:49:48.771Z,87799.00
2024-01-08T02:50:48.757Z,87802.00
2024-01-08T02:51:48.824Z,87802.00
2024-01-08T02:52:48.786Z,87802.00
2024-01-08T02:53:48.768Z,87804.00
2024-01-08T02:54:48.792Z,87803.00
2024-01-08T02:55:48.854Z,87804.00
2024-01-08T02:56:48.833Z,87803.00
2024-01-08T02:57:48.783Z,87804.00
2024-01-08T02:58:48.831Z,87805.00
2024-01-08T02:59:48.785Z,87804.00
2024-01-08T03:00:48.794Z,87806.00
2024-01-08T03:01:48.954Z,87807.00
2024-01-08T03:02:48.772Z,87807.00
2024-01-08T03:03:48.812Z,87807.00
2024-01-08T03:04:48.842Z,87805.00
2024-01-08T03:05:48.816Z,87808.00
2024-01-08T03:06:48.833Z,87812.00
2024-01-08T03:07:48.795Z,87809.00
2024-01-08T03:08:48.748Z,87811.00
2024-01-08T03:09:48.738Z,87810.00
2024-01-08T03:10:48.825Z,87811.00
2024-01-08T03:11:48.740Z,87814.00
2024-01-08T03:12:48.726Z,87811.00
2024-01-08T03:13:48.724Z,87812.00
2024-01-08T03:14:48.729Z,87813.00
2024-01-08T03:15:48.750Z,87816.00
2024-01-08T03:16:48.748Z,87813.00
2024-01-08T03:17:53.556Z,87814.00
2024-01-08T03:18:48.809Z,87814.00
2024-01-08T03:19:48.726Z,87814.00
2024-01-08T03:20:48.696Z,87814.00
2024-01-08T03:21:48.698Z,87814.00
2024-01-08T03:22:48.718Z,87815.00
2024-01-08T03:23:48.802Z,87814.00
2024-01-08T03:24:48.690Z,87811.00
2024-01-08T03:25:48.774Z,87813.00
2024-01-08T03:26:48.702Z,87812.00
2024-01-08T03:27:48.720Z,87813.00
2024-01-08T03:28:48.792Z,87812.00
2024-01-08T03:29:48.696Z,87813.00
2024-01-08T03:30:48.726Z,87817.00
2024-01-08T03:31:48.705Z,87817.00
2024-01-08T03:32:49.793Z,87817.00
2024-01-08T03:33:48.700Z,87816.00
2024-01-08T03:34:48.764Z,87816.00
2024-01-08T03:35:48.669Z,87816.00
2024-01-08T03:36:48.677Z,87817.00
2024-01-08T03:37:59.313Z,87816.00
2024-01-08T03:38:48.671Z,87816.00
2024-01-08T03:39:48.692Z,87818.00
2024-01-08T03:40:48.785Z,87817.00
2024-01-08T03:41:48.684Z,87819.00
2024-01-08T03:43:04.860Z,87818.00
2024-01-08T03:43:48.760Z,87817.00
2024-01-08T03:44:48.678Z,87818.00
2024-01-08T03:45:48.666Z,87819.00
2024-01-08T03:46:48.926Z,87820.00
2024-01-08T03:52:29.229Z,87820.00
2024-01-08T03:52:48.682Z,87823.00
2024-01-08T03:53:48.684Z,87824.00
2024-01-08T03:54:48.668Z,87824.00
2024-01-08T03:55:48.690Z,87825.00
2024-01-08T03:56:48.757Z,87827.00
2024-01-08T03:57:48.675Z,87827.00
2024-01-08T03:58:48.692Z,87827.00
2024-01-08T03:59:48.647Z,87826.00
2024-01-08T04:00:48.715Z,87825.00
2024-01-08T04:01:48.778Z,87825.00
2024-01-08T04:02:49.023Z,87823.00
2024-01-08T04:03:48.764Z,87825.00
2024-01-08T04:04:48.696Z,87823.00
2024-01-08T04:05:48.793Z,87824.00
2024-01-08T04:06:48.717Z,87824.00
2024-01-08T04:07:50.708Z,87825.00
2024-01-08T04:08:48.702Z,87825.00
2024-01-08T04:09:48.691Z,87826.00
2024-01-08T04:10:48.672Z,87827.00
2024-01-08T04:11:48.678Z,87827.00
2024-01-08T04:12:48.697Z,87829.00
2024-01-08T04:13:48.717Z,87825.00
2024-01-08T04:14:48.712Z,87828.00
2024-01-08T04:15:48.687Z,87827.00
2024-01-08T04:16:48.693Z,87829.00
2024-01-08T04:17:48.750Z,87831.00
2024-01-08T04:18:48.701Z,87829.00
2024-01-08T04:19:48.661Z,87828.00
2024-01-08T04:20:48.649Z,87829.00
2024-01-08T04:21:50.084Z,87829.00
2024-01-08T04:22:48.674Z,87829.00
2024-01-08T04:23:48.671Z,87832.00
2024-01-08T04:24:48.663Z,87832.00
2024-01-08T04:25:48.658Z,87832.00
2024-01-08T04:26:48.667Z,87832.00
2024-01-08T04:27:48.663Z,87832.00
2024-01-08T04:28:48.642Z,87833.00
2024-01-08T04:29:48.635Z,87835.00
2024-01-08T04:30:48.685Z,87838.00
2024-01-08T04:31:48.693Z,87835.00
2024-01-08T04:32:48.768Z,87837.00
2024-01-08T04:33:48.753Z,87838.00
2024-01-08T04:34:48.615Z,87839.00
2024-01-08T04:35:48.623Z,87840.00
2024-01-08T04:36:48.621Z,87842.00
2024-01-08T04:37:48.596Z,87841.00
2024-01-08T04:38:48.585Z,87843.00
2024-01-08T04:39:48.591Z,87847.00
2024-01-08T04:40:48.590Z,87846.00
2024-01-08T04:41:48.576Z,87848.00
2024-01-08T04:42:50.082Z,87846.00
2024-01-08T04:43:48.818Z,87849.00
2024-01-08T04:44:48.823Z,87848.00
2024-01-08T04:45:48.829Z,87849.00
2024-01-08T04:49:11.287Z,87851.00
2024-01-08T04:49:56.167Z,87853.00
2024-01-08T04:50:56.177Z,87854.00
2024-01-08T04:51:56.192Z,87855.00
2024-01-08T04:52:56.254Z,87857.00
2024-01-08T04:53:56.218Z,87858.00
2024-01-08T04:54:56.243Z,87857.00
2024-01-08T04:55:56.274Z,87859.00
2024-01-08T04:56:56.267Z,87862.00
2024-01-08T04:57:56.280Z,87859.00
2024-01-08T04:58:56.380Z,87861.00
2024-01-08T04:59:56.299Z,87859.00
2024-01-08T05:00:56.311Z,87860.00
2024-01-08T05:01:56.341Z,87860.00
2024-01-08T05:02:56.393Z,87859.00
2024-01-08T05:03:56.354Z,87861.00
2024-01-08T05:04:56.373Z,87861.00
2024-01-08T05:05:56.417Z,87863.00
2024-01-08T05:06:56.381Z,87865.00
2024-01-08T05:07:56.421Z,87863.00
2024-01-08T05:08:56.403Z,87867.00
2024-01-08T05:09:56.433Z,87865.00
2024-01-08T05:10:56.435Z,87866.00
2024-01-08T05:11:56.441Z,87866.00
2024-01-08T05:12:56.468Z,87865.00
2024-01-08T05:13:56.486Z,87868.00
2024-01-08T05:14:56.491Z,87866.00
2024-01-08T05:15:56.494Z,87869.00
2024-01-08T05:16:56.521Z,87868.00
2024-01-08T05:17:56.733Z,87867.00
2024-01-08T05:18:56.611Z,87866.00
2024-01-08T05:19:56.576Z,87867.00
2024-01-08T05:20:56.562Z,87870.00
2024-01-08T05:21:56.592Z,87867.00
2024-01-08T05:22:56.602Z,87871.00
2024-01-08T05:23:56.616Z,87871.00
2024-01-08T05:24:56.622Z,87873.00
2024-01-08T05:25:56.653Z,87872.00
2024-01-08T05:26:56.656Z,87873.00
2024-01-08T05:27:56.681Z,87874.00
2024-01-08T05:28:56.703Z,87873.00
2024-01-08T05:29:56.726Z,87873.00
2024-01-08T05:30:56.831Z,87873.00
2024-01-08T05:31:56.776Z,87873.00
2024-01-08T05:32:56.835Z,87872.00
2024-01-08T05:33:56.798Z,87872.00
2024-01-08T05:34:56.833Z,87872.00
2024-01-08T05:35:56.827Z,87874.00
2024-01-08T05:36:56.846Z,87874.00
2024-01-08T05:37:56.885Z,87875.00
2024-01-08T05:38:56.892Z,87874.00
2024-01-08T05:39:56.909Z,87873.00
2024-01-08T05:40:57.276Z,87875.00
2024-01-08T05:41:56.934Z,87876.00
2024-01-08T05:42:56.970Z,87880.00
2024-01-08T05:43:57.052Z,87877.00
2024-01-08T05:44:57.007Z,87879.00
2024-01-08T05:45:57.002Z,87880.00
2024-01-08T05:46:57.043Z,87880.00
2024-01-08T05:47:57.254Z,87881.00
2024-01-08T05:48:57.135Z,87882.00
2024-01-08T05:49:57.087Z,87882.00
2024-01-08T05:50:57.091Z,87885.00
2024-01-08T05:51:57.085Z,87884.00
2024-01-08T05:52:57.181Z,87887.00
2024-01-08T05:53:57.169Z,87886.00
2024-01-08T05:54:57.151Z,87885.00
2024-01-08T05:55:57.161Z,87887.00
2024-01-08T05:56:57.174Z,87887.00
2024-01-08T05:57:57.193Z,87888.00
2024-01-08T05:58:57.207Z,87889.00
2024-01-08T05:59:57.216Z,87889.00
2024-01-08T06:00:57.281Z,87891.00
2024-01-08T06:01:57.429Z,87893.00
2024-01-08T06:02:57.285Z,87892.00
2024-01-08T06:03:57.342Z,87891.00
2024-01-08T06:04:57.311Z,87891.00
2024-01-08T06:05:57.409Z,87890.00
2024-01-08T06:06:57.398Z,87893.00
2024-01-08T06:07:57.358Z,87892.00
2024-01-08T06:08:57.350Z,87893.00
2024-01-08T06:09:57.379Z,87894.00
2024-01-08T06:10:57.433Z,87894.00
2024-01-08T06:11:57.405Z,87893.00
2024-01-08T06:12:57.436Z,87895.00
2024-01-08T06:13:57.591Z,87895.00
2024-01-08T06:14:57.673Z,87893.00
2024-01-08T06:15:57.538Z,87896.00
2024-01-08T06:16:57.574Z,87895.00
2024-01-08T06:18:01.265Z,87894.00
2024-01-08T06:18:57.824Z,87893.00
2024-01-08T06:19:57.619Z,87896.00
2024-01-08T06:20:57.619Z,87893.00
2024-01-08T06:21:57.674Z,87894.00
2024-01-08T06:22:57.697Z,87893.00
2024-01-08T06:23:58.270Z,87894.00
2024-01-08T06:24:57.847Z,87897.00
2024-01-08T06:25:57.930Z,87898.00
2024-01-08T06:26:57.945Z,87898.00
2024-01-08T06:27:57.999Z,87896.00
2024-01-08T06:28:58.118Z,87900.00
2024-01-08T06:29:58.139Z,87900.00
2024-01-08T06:30:58.303Z,87900.00
2024-01-08T06:31:58.451Z,87902.00
2024-01-08T06:32:59.100Z,87903.00
2024-01-08T06:33:59.405Z,87902.00
2024-01-08T06:34:58.483Z,87901.00
2024-01-08T06:35:58.499Z,87902.00
2024-01-08T06:36:58.637Z,87903.00
2024-01-08T06:37:58.682Z,87904.00
2024-01-08T06:38:59.712Z,87906.00
2024-01-08T06:39:58.962Z,87908.00
2024-01-08T06:40:58.889Z,87912.00
2024-01-08T06:41:58.902Z,87910.00
2024-01-08T06:43:01.591Z,87911.00
2024-01-08T06:44:01.937Z,87914.00
2024-01-08T06:44:59.729Z,87913.00
2024-01-08T06:45:58.999Z,87915.00
2024-01-08T06:46:59.048Z,87916.00
2024-01-08T06:48:01.065Z,87914.00
2024-01-08T06:48:59.106Z,87920.00
2024-01-08T06:49:59.357Z,87917.00
2024-01-08T06:50:59.090Z,87919.00
2024-01-08T06:51:59.056Z,87920.00
2024-01-08T06:52:59.158Z,87920.00
2024-01-08T06:53:59.095Z,87922.00
2024-01-08T06:54:59.126Z,87920.00
2024-01-08T06:55:59.161Z,87921.00
2024-01-08T06:56:59.229Z,87922.00
2024-01-08T06:57:59.319Z,87923.00
2024-01-08T06:58:59.424Z,87923.00
2024-01-08T06:59:59.499Z,87927.00
2024-01-08T07:00:59.557Z,87927.00
2024-01-08T07:01:59.651Z,87931.00
2024-01-08T07:02:59.616Z,87930.00
2024-01-08T07:03:59.608Z,87930.00
2024-01-08T07:04:59.669Z,87931.00
2024-01-08T07:05:59.822Z,87934.00
2024-01-08T07:06:59.640Z,87934.00
2024-01-08T07:07:59.677Z,87933.00
2024-01-08T07:08:59.646Z,87936.00
2024-01-08T07:09:59.647Z,87937.00
2024-01-08T07:10:59.716Z,87937.00
2024-01-08T07:11:59.718Z,87938.00
2024-01-08T07:12:59.813Z,87938.00
2024-01-08T07:13:59.795Z,87938.00
2024-01-08T07:14:59.715Z,87940.00
2024-01-08T07:15:59.788Z,87939.00
2024-01-08T07:16:59.829Z,87939.00
2024-01-08T07:18:00.312Z,87940.00
2024-01-08T07:18:59.894Z,87943.00
2024-01-08T07:19:59.990Z,87943.00
2024-01-08T07:20:59.959Z,87945.00
2024-01-08T07:21:59.896Z,87947.00
2024-01-08T07:22:59.932Z,87946.00
2024-01-08T07:23:59.899Z,87946.00
2024-01-08T07:24:59.866Z,87949.00
2024-01-08T07:25:59.883Z,87948.00
2024-01-08T07:26:59.884Z,87949.00
2024-01-08T07:27:59.919Z,87951.00
2024-01-08T07:28:59.926Z,87954.00
2024-01-08T07:29:59.924Z,87954.00
2024-01-08T07:30:59.988Z,87957.00
2024-01-08T07:32:00.073Z,87958.00
2024-01-08T07:33:00.135Z,87960.00
2024-01-08T07:34:00.134Z,87960.00
2024-01-08T07:34:59.984Z,87962.00
2024-01-08T07:35:59.951Z,87963.00
2024-01-08T07:36:59.967Z,87965.00
2024-01-08T07:38:00.071Z,87967.00
2024-01-08T07:39:00.129Z,87970.00
2024-01-08T07:40:00.050Z,87972.00
2024-01-08T07:41:00.169Z,87971.00
2024-01-08T07:42:00.005Z,87973.00
2024-01-08T07:43:00.000Z,87974.00
2024-01-08T07:44:00.091Z,87975.00
2024-01-08T07:45:00.088Z,87976.00
2024-01-08T07:46:00.101Z,87977.00
2024-01-08T07:47:00.034Z,87979.00
2024-01-08T07:48:00.451Z,87979.00
2024-01-08T07:49:00.236Z,87980.00
2024-01-08T07:50:00.426Z,87982.00
2024-01-08T07:51:00.300Z,87984.00
2024-01-08T07:52:00.393Z,87985.00
2024-01-08T07:53:00.417Z,87987.00
2024-01-08T07:54:00.450Z,87986.00
2024-01-08T07:55:00.618Z,87986.00
2024-01-08T07:56:00.661Z,87988.00
2024-01-08T07:57:02.986Z,87988.00
2024-01-08T07:58:00.592Z,87988.00
2024-01-08T07:59:00.706Z,87989.00
2024-01-08T08:00:00.611Z,87991.00
2024-01-08T08:01:00.602Z,87991.00
2024-01-08T08:02:01.051Z,87990.00
2024-01-08T08:03:00.924Z,87992.00
2024-01-08T08:04:03.289Z,87993.00
2024-01-08T08:05:00.801Z,87994.00
2024-01-08T08:06:00.752Z,87996.00
2024-01-08T08:07:00.766Z,87996.00
2024-01-08T08:08:00.925Z,87996.00
2024-01-08T08:09:00.821Z,87997.00
2024-01-08T08:10:00.879Z,87996.00
2024-01-08T08:11:00.940Z,87995.00
2024-01-08T08:12:00.621Z,87997.00
2024-01-08T08:13:00.657Z,88000.00
2024-01-08T08:14:00.714Z,88000.00
2024-01-08T08:15:00.659Z,87999.00
2024-01-08T08:16:00.641Z,88003.00
2024-01-08T08:17:00.740Z,88004.00
2024-01-08T08:18:04.136Z,88005.00
2024-01-08T08:19:00.820Z,88011.00
2024-01-08T08:20:00.804Z,88007.00
2024-01-08T08:21:00.720Z,88007.00
2024-01-08T08:22:00.701Z,88007.00
2024-01-08T08:23:01.128Z,88007.00
2024-01-08T08:24:00.882Z,88009.00
2024-01-08T08:25:00.760Z,88010.00
2024-01-08T08:26:00.720Z,88011.00
2024-01-08T08:27:00.824Z,88010.00
2024-01-08T08:28:00.648Z,88011.00
2024-01-08T08:29:00.726Z,88012.00
2024-01-08T08:30:00.737Z,88009.00
2024-01-08T08:31:00.890Z,88013.00
2024-01-08T08:32:02.161Z,88014.00
2024-01-08T08:33:00.975Z,88018.00
2024-01-08T08:34:00.811Z,88016.00
2024-01-08T08:35:00.804Z,88016.00
2024-01-08T08:36:00.826Z,88020.00
2024-01-08T08:37:03.964Z,88021.00
2024-01-08T08:38:00.788Z,88018.00
2024-01-08T08:39:00.849Z,88022.00
2024-01-08T08:40:02.413Z,88022.00
2024-01-08T08:41:00.856Z,88022.00
2024-01-08T08:42:00.790Z,88022.00
2024-01-08T08:43:00.981Z,88024.00
2024-01-08T08:44:00.825Z,88026.00
2024-01-08T08:45:00.904Z,88028.00
2024-01-08T08:46:03.226Z,88030.00
2024-01-08T08:47:00.781Z,88030.00
2024-01-08T08:48:01.001Z,88033.00
2024-01-08T08:49:00.878Z,88032.00
2024-01-08T08:50:00.842Z,88031.00
2024-01-08T08:51:00.850Z,88033.00
2024-01-08T08:52:00.927Z,88033.00
2024-01-08T08:53:00.882Z,88038.00
2024-01-08T08:54:00.863Z,88039.00
2024-01-08T08:55:00.821Z,88036.00
2024-01-08T08:56:00.916Z,88041.00
2024-01-08T08:57:00.858Z,88040.00
2024-01-08T08:58:00.860Z,88043.00
2024-01-08T08:59:00.872Z,88042.00
2024-01-08T09:00:00.839Z,88044.00
2024-01-08T09:01:00.940Z,88049.00
2024-01-08T09:02:01.039Z,88049.00
2024-01-08T09:03:01.002Z,88049.00
2024-01-08T09:04:01.130Z,88053.00
2024-01-08T09:05:01.410Z,88052.00
2024-01-08T09:06:01.317Z,88054.00
2024-01-08T09:07:01.472Z,88054.00
2024-01-08T09:08:01.261Z,88053.00
2024-01-08T09:09:01.284Z,88056.00
2024-01-08T09:10:01.349Z,88057.00
2024-01-08T09:11:01.370Z,88054.00
2024-01-08T09:12:01.351Z,88058.00
2024-01-08T09:13:01.333Z,88057.00
2024-01-08T09:14:01.507Z,88061.00
2024-01-08T09:15:01.349Z,88057.00
2024-01-08T09:16:01.376Z,88059.00
2024-01-08T09:17:01.353Z,88061.00
2024-01-08T09:18:01.538Z,88060.00
2024-01-08T09:19:01.485Z,88062.00
2024-01-08T09:20:01.384Z,88063.00
2024-01-08T09:21:08.673Z,88060.00
2024-01-08T09:22:08.697Z,88061.00
2024-01-08T09:23:09.743Z,88065.00
2024-01-08T09:24:08.747Z,88067.00
2024-01-08T09:25:08.777Z,88067.00
2024-01-08T09:26:08.821Z,88066.00
2024-01-08T09:27:08.837Z,88067.00
2024-01-08T09:28:09.293Z,88069.00
2024-01-08T09:29:08.931Z,88066.00
2024-01-08T09:30:08.911Z,88069.00
2024-01-08T09:31:09.092Z,88069.00
2024-01-08T09:32:09.784Z,88070.00
2024-01-08T09:33:09.115Z,88067.00
2024-01-08T09:34:09.092Z,88069.00
2024-01-08T09:35:09.080Z,88071.00
2024-01-08T09:36:09.258Z,88066.00
2024-01-08T09:37:09.062Z,88070.00
2024-01-08T09:38:09.781Z,88069.00
2024-01-08T09:39:09.126Z,88071.00
2024-01-08T09:40:09.161Z,88070.00
2024-01-08T09:41:16.160Z,88071.00
2024-01-08T09:42:10.978Z,88072.00
2024-01-08T09:43:09.797Z,88071.00
2024-01-08T09:44:09.345Z,88070.00
2024-01-08T09:45:09.450Z,88072.00
2024-01-08T09:46:09.291Z,88073.00
2024-01-08T09:47:09.349Z,88073.00
2024-01-08T09:48:09.354Z,88072.00
2024-01-08T09:49:09.430Z,88072.00
2024-01-08T09:50:09.424Z,88058.00
2024-01-08T09:51:09.430Z,88068.00
2024-01-08T09:52:09.457Z,88068.00
2024-01-08T09:53:09.496Z,88069.00
2024-01-08T09:54:10.333Z,88069.00
2024-01-08T09:55:09.499Z,88069.00
2024-01-08T09:56:09.556Z,88071.00
2024-01-08T09:57:09.537Z,88071.00
2024-01-08T09:58:09.543Z,88069.00
2024-01-08T09:59:09.646Z,88068.00
2024-01-08T10:00:09.629Z,88068.00
2024-01-08T10:01:09.618Z,88067.00
2024-01-08T10:02:09.692Z,88068.00
2024-01-08T10:03:09.587Z,88065.00
2024-01-08T10:04:10.469Z,88067.00
2024-01-08T10:05:10.042Z,88066.00
2024-01-08T10:06:09.802Z,88067.00
2024-01-08T10:07:10.005Z,88067.00
2024-01-08T10:08:09.733Z,88068.00
2024-01-08T10:09:09.730Z,88067.00
2024-01-08T10:10:09.750Z,88070.00
2024-01-08T10:11:09.788Z,88067.00
2024-01-08T10:12:11.421Z,88069.00
2024-01-08T10:13:09.737Z,88070.00
2024-01-08T10:14:09.899Z,88067.00
2024-01-08T10:15:09.898Z,88065.00
2024-01-08T10:16:09.868Z,88065.00
2024-01-08T10:17:09.913Z,88068.00
2024-01-08T10:18:10.298Z,88066.00
2024-01-08T10:19:10.226Z,88061.00
2024-01-08T10:20:10.852Z,88060.00
2024-01-08T10:21:10.711Z,88062.00
2024-01-08T10:22:09.860Z,88058.00
2024-01-08T10:23:10.185Z,88060.00
2024-01-08T10:24:10.096Z,88058.00
2024-01-08T10:25:09.891Z,88058.00
2024-01-08T10:26:09.996Z,88056.00
2024-01-08T10:27:10.077Z,88056.00
2024-01-08T10:28:09.876Z,88054.00
2024-01-08T10:29:09.990Z,88054.00
2024-01-08T10:30:09.977Z,88053.00
2024-01-08T10:31:09.985Z,88052.00
2024-01-08T10:32:10.075Z,88053.00
2024-01-08T10:33:10.254Z,88052.00
2024-01-08T10:34:10.566Z,88050.00
2024-01-08T10:35:10.025Z,88054.00
2024-01-08T10:36:10.086Z,88052.00
2024-01-08T10:37:10.087Z,88055.00
2024-01-08T10:38:10.259Z,88053.00
2024-01-08T10:39:11.803Z,88053.00
2024-01-08T10:40:10.306Z,88053.00
2024-01-08T10:41:10.303Z,88046.00
2024-01-08T10:42:10.199Z,88050.00
2024-01-08T10:43:10.253Z,88048.00
2024-01-08T10:44:10.303Z,88048.00
2024-01-08T10:45:10.419Z,88046.00
2024-01-08T10:46:10.848Z,88047.00
2024-01-08T10:47:12.596Z,88048.00
2024-01-08T10:48:10.385Z,88046.00
2024-01-08T10:49:10.932Z,88045.00
2024-01-08T10:50:10.338Z,88043.00
2024-01-08T10:51:10.404Z,88042.00
2024-01-08T10:52:10.332Z,88041.00
2024-01-08T10:53:10.369Z,88041.00
2024-01-08T10:54:10.806Z,88039.00
2024-01-08T10:55:10.366Z,88038.00
2024-01-08T10:56:10.413Z,88039.00
2024-01-08T10:57:10.531Z,88037.00
2024-01-08T10:58:10.426Z,88037.00
2024-01-08T10:59:10.528Z,88037.00
2024-01-08T11:00:10.933Z,88036.00
2024-01-08T11:01:10.515Z,88037.00
2024-01-08T11:02:10.590Z,88036.00
2024-01-08T11:03:10.516Z,88038.00
2024-01-08T11:04:10.505Z,88035.00
2024-01-08T11:05:10.689Z,88037.00
2024-01-08T11:06:13.532Z,88036.00
2024-01-08T11:07:10.504Z,88035.00
2024-01-08T11:08:10.565Z,88035.00
2024-01-08T11:09:10.547Z,88036.00
2024-01-08T11:10:11.091Z,88035.00
2024-01-08T11:11:11.353Z,88033.00
2024-01-08T11:12:10.593Z,88033.00
2024-01-08T11:13:10.725Z,88035.00
2024-01-08T11:14:10.626Z,88035.00
2024-01-08T11:15:13.380Z,88033.00
2024-01-08T11:16:10.703Z,88030.00
2024-01-08T11:17:10.714Z,88033.00
2024-01-08T11:18:10.867Z,88031.00
2024-01-08T11:19:10.930Z,88027.00
2024-01-08T11:20:10.754Z,88026.00
2024-01-08T11:21:10.788Z,88026.00
2024-01-08T11:22:10.839Z,88020.00
2024-01-08T11:23:10.859Z,88020.00
2024-01-08T11:24:10.874Z,88021.00
2024-01-08T11:25:11.097Z,88021.00
2024-01-08T11:26:11.407Z,88018.00
2024-01-08T11:27:11.024Z,88020.00
2024-01-08T11:28:10.991Z,88020.00
2024-01-08T11:29:11.375Z,88020.00
2024-01-08T11:30:11.133Z,88022.00
2024-01-08T11:31:11.127Z,88019.00
2024-01-08T11:32:11.215Z,88018.00
2024-01-08T11:33:11.351Z,88016.00
2024-01-08T11:34:11.294Z,88017.00
2024-01-08T11:35:13.298Z,88017.00
2024-01-08T11:36:11.416Z,88016.00
2024-01-08T11:37:12.351Z,88015.00
2024-01-08T11:38:11.442Z,88016.00
2024-01-08T11:39:11.534Z,88015.00
2024-01-08T11:40:12.382Z,88013.00
2024-01-08T11:41:12.752Z,88013.00
2024-01-08T11:42:11.790Z,88015.00
2024-01-08T11:43:11.798Z,88014.00
2024-01-08T11:44:12.436Z,88017.00
2024-01-08T11:45:12.350Z,88016.00
2024-01-08T11:46:12.315Z,88015.00
2024-01-08T11:47:13.282Z,88015.00
2024-01-08T11:48:13.045Z,88016.00
2024-01-08T11:49:12.384Z,88016.00
2024-01-08T11:50:13.220Z,88017.00
2024-01-08T11:51:12.301Z,88017.00